Time;durP1;ratioP1;P1;durP2;ratioP2;P2;SDS_P1;SDS_P2;PMS_P1;PMS_P2;Temp;Humidity;BMP_temperature;BMP_pressure;BME280_temperature;BME280_humidity;BME280_pressure;Samples;Min_cycle;Max_cycle;Signal;HPM_P1;HPM_P2
2022/03/03 00:00:40;;;;;;;114.47;48.33;;;;;;;;;;6246418;28;20079;-65
2022/03/03 00:03:40;;;;;;;118.43;52.45;;;;;;;;;;6242109;28;20053;-65
2022/03/03 00:06:40;;;;;;;106.05;49.17;;;;;;;;;;6245758;28;20101;-65
2022/03/03 00:09:41;;;;;;;133.82;53.75;;;;;;;;;;6245223;28;20021;-65
2022/03/03 00:12:42;;;;;;;129.40;57.72;;;;;;;;;;6243967;28;20049;-65
2022/03/03 00:15:43;;;;;;;123.30;53.45;;;;;;;;;;6225559;23;20077;-82
2022/03/03 00:18:43;;;;;;;125.63;56.97;;;;;;;;;;6247710;23;20432;-64
2022/03/03 00:21:43;;;;;;;124.05;54.13;;;;;;;;;;6246448;28;20071;-64
2022/03/03 00:24:44;;;;;;;136.87;56.73;;;;;;;;;;6261312;28;20120;-64
2022/03/03 00:27:44;;;;;;;122.82;52.53;;;;;;;;;;6246478;28;20068;-64
2022/03/03 00:30:44;;;;;;;137.25;54.75;;;;;;;;;;6246470;28;20550;-64
2022/03/03 00:33:45;;;;;;;140.52;54.50;;;;;;;;;;6245816;28;20038;-64
2022/03/03 00:36:45;;;;;;;148.83;54.37;;;;;;;;;;6245532;28;20137;-64
2022/03/03 00:39:46;;;;;;;129.57;54.20;;;;;;;;;;6246086;28;20407;-64
2022/03/03 00:42:46;;;;;;;129.02;53.63;;;;;;;;;;6246167;28;20542;-64
2022/03/03 00:45:46;;;;;;;130.07;53.43;;;;;;;;;;6245359;28;20025;-64
2022/03/03 00:48:47;;;;;;;94.28;39.25;;;;;;;;;;6244730;28;20091;-64
2022/03/03 00:51:47;;;;;;;116.30;49.20;;;;;;;;;;6245231;28;20048;-64
2022/03/03 00:54:47;;;;;;;122.13;50.03;;;;;;;;;;6245344;28;20051;-64
2022/03/03 00:57:47;;;;;;;115.73;50.07;;;;;;;;;;6245252;28;20014;-64
2022/03/03 01:00:48;;;;;;;126.03;53.33;;;;;;;;;;6245511;28;20087;-64
2022/03/03 01:03:48;;;;;;;134.35;55.58;;;;;;;;;;6245109;28;20383;-64
2022/03/03 01:06:49;;;;;;;124.23;46.87;;;;;;;;;;6245028;28;20045;-64
2022/03/03 01:09:49;;;;;;;121.03;52.97;;;;;;;;;;6244941;28;20037;-64
2022/03/03 01:12:50;;;;;;;128.18;52.55;;;;;;;;;;6244459;28;20396;-64
2022/03/03 01:15:50;;;;;;;120.63;55.80;;;;;;;;;;6244804;28;20022;-64
2022/03/03 01:18:51;;;;;;;125.40;53.95;;;;;;;;;;6244723;28;20057;-64
2022/03/03 01:21:51;;;;;;;140.37;58.47;;;;;;;;;;6244811;28;20092;-64
2022/03/03 01:24:51;;;;;;;104.05;42.92;;;;;;;;;;6244665;28;20075;-64
2022/03/03 01:27:52;;;;;;;134.57;59.85;;;;;;;;;;6244125;28;20068;-64
2022/03/03 01:30:52;;;;;;;157.40;65.40;;;;;;;;;;6244713;28;20033;-64
2022/03/03 01:33:52;;;;;;;162.87;70.37;;;;;;;;;;6244413;28;20025;-64
2022/03/03 01:36:52;;;;;;;209.40;84.70;;;;;;;;;;6244512;28;20445;-64
2022/03/03 01:39:53;;;;;;;196.35;74.78;;;;;;;;;;6244788;28;20024;-64
2022/03/03 01:42:53;;;;;;;196.25;84.63;;;;;;;;;;6244395;28;20009;-64
2022/03/03 01:45:53;;;;;;;204.50;77.47;;;;;;;;;;6243897;28;20089;-64
2022/03/03 01:48:54;;;;;;;214.50;88.53;;;;;;;;;;6243122;28;20017;-64
2022/03/03 01:51:54;;;;;;;199.47;81.03;;;;;;;;;;6244212;28;20071;-66
2022/03/03 01:54:54;;;;;;;214.82;82.13;;;;;;;;;;6244311;28;20025;-66
2022/03/03 01:57:57;;;;;;;197.05;82.88;;;;;;;;;;6243722;28;20028;-65
2022/03/03 02:00:57;;;;;;;;;;;;;;;;;;6244814;28;20163;-65
2022/03/03 02:03:57;;;;;;;197.20;79.35;;;;;;;;;;6243429;28;19909;-65
2022/03/03 02:06:58;;;;;;;195.00;81.30;;;;;;;;;;6243777;28;20408;-65
2022/03/03 02:10:00;;;;;;;182.37;77.73;;;;;;;;;;6244432;28;20079;-63
2022/03/03 02:13:00;;;;;;;137.52;60.13;;;;;;;;;;6243761;28;20057;-63
2022/03/03 02:16:00;;;;;;;190.93;76.80;;;;;;;;;;6243369;28;20063;-65
2022/03/03 02:19:01;;;;;;;194.00;72.03;;;;;;;;;;6242361;28;20038;-65
2022/03/03 02:22:01;;;;;;;139.03;56.97;;;;;;;;;;6243304;28;20024;-65
2022/03/03 02:25:01;;;;;;;134.47;56.70;;;;;;;;;;6243440;28;20037;-65
2022/03/03 02:28:01;;;;;;;139.15;57.85;;;;;;;;;;6243635;28;20017;-65
2022/03/03 02:31:02;;;;;;;143.30;57.20;;;;;;;;;;6243591;28;20044;-65
2022/03/03 02:34:02;;;;;;;135.40;59.80;;;;;;;;;;6243316;28;20025;-65
2022/03/03 02:37:03;;;;;;;157.02;63.03;;;;;;;;;;6242092;28;20041;-65
2022/03/03 02:40:04;;;;;;;148.40;63.40;;;;;;;;;;6243492;28;20076;-65
2022/03/03 02:43:05;;;;;;;150.95;60.65;;;;;;;;;;6243204;28;20032;-65
2022/03/03 02:46:05;;;;;;;135.63;56.55;;;;;;;;;;6243151;28;20034;-65
2022/03/03 02:49:06;;;;;;;118.85;44.42;;;;;;;;;;6243633;28;20029;-65
2022/03/03 02:52:06;;;;;;;117.00;47.03;;;;;;;;;;6243865;28;20084;-65
2022/03/03 02:55:07;;;;;;;129.43;51.53;;;;;;;;;;6243258;28;20071;-65
2022/03/03 02:58:10;;;;;;;120.80;48.73;;;;;;;;;;6241071;28;20026;-65
2022/03/03 03:01:11;;;;;;;118.80;47.72;;;;;;;;;;6242557;28;20702;-66
2022/03/03 03:04:11;;;;;;;118.30;46.88;;;;;;;;;;6242626;28;20065;-65
2022/03/03 03:07:11;;;;;;;133.73;51.77;;;;;;;;;;6242922;28;20021;-65
2022/03/03 03:10:12;;;;;;;134.03;53.90;;;;;;;;;;6243153;28;20099;-65
2022/03/03 03:13:14;;;;;;;134.47;53.03;;;;;;;;;;6242855;28;20411;-65
2022/03/03 03:16:14;;;;;;;128.68;52.85;;;;;;;;;;6242523;28;20021;-65
2022/03/03 03:19:14;;;;;;;122.17;48.83;;;;;;;;;;6242927;28;20130;-65
2022/03/03 03:22:15;;;;;;;122.63;49.10;;;;;;;;;;6242824;28;20028;-65
2022/03/03 03:25:15;;;;;;;120.93;51.03;;;;;;;;;;6242537;28;20104;-65
2022/03/03 03:28:16;;;;;;;133.73;53.97;;;;;;;;;;6223550;28;20030;-65
2022/03/03 03:31:17;;;;;;;139.75;54.40;;;;;;;;;;6241172;28;20446;-65
2022/03/03 03:34:17;;;;;;;119.72;50.15;;;;;;;;;;6246876;28;20021;-65
2022/03/03 03:37:18;;;;;;;142.70;57.07;;;;;;;;;;6247226;28;20507;-65
2022/03/03 03:40:18;;;;;;;120.20;52.73;;;;;;;;;;6247079;28;20017;-65
2022/03/03 03:43:18;;;;;;;141.73;56.50;;;;;;;;;;6247137;28;20017;-65
2022/03/03 03:46:19;;;;;;;122.83;51.47;;;;;;;;;;6246727;28;20017;-65
2022/03/03 03:49:19;;;;;;;122.23;50.17;;;;;;;;;;6247404;28;20013;-66
2022/03/03 03:52:19;;;;;;;108.90;42.37;;;;;;;;;;6246817;28;20021;-65
2022/03/03 03:55:20;;;;;;;110.93;45.00;;;;;;;;;;6246470;28;20028;-65
2022/03/03 03:58:20;;;;;;;107.40;47.97;;;;;;;;;;6246100;28;20013;-65
2022/03/03 04:01:20;;;;;;;85.07;38.27;;;;;;;;;;6244852;28;20120;-65
2022/03/03 04:04:21;;;;;;;116.63;48.40;;;;;;;;;;6245439;28;20376;-65
2022/03/03 04:07:21;;;;;;;121.67;49.50;;;;;;;;;;6245643;28;20013;-66
2022/03/03 04:10:21;;;;;;;121.50;51.97;;;;;;;;;;6245722;28;20468;-65
2022/03/03 04:13:21;;;;;;;135.80;57.77;;;;;;;;;;6245441;28;20063;-65
2022/03/03 04:16:22;;;;;;;136.47;54.63;;;;;;;;;;6245029;28;20057;-65
2022/03/03 04:19:23;;;;;;;126.13;52.97;;;;;;;;;;6245465;28;20381;-65
2022/03/03 04:22:23;;;;;;;133.03;53.50;;;;;;;;;;6245159;28;20021;-65
2022/03/03 04:25:23;;;;;;;141.07;50.83;;;;;;;;;;6244992;28;20022;-65
2022/03/03 04:28:23;;;;;;;133.43;52.23;;;;;;;;;;6245200;28;20009;-66
2022/03/03 04:31:24;;;;;;;130.73;54.47;;;;;;;;;;6246290;28;20414;-65
2022/03/03 04:34:25;;;;;;;107.87;44.37;;;;;;;;;;6245416;28;20072;-65
2022/03/03 04:37:25;;;;;;;122.90;48.22;;;;;;;;;;6245676;28;20010;-65
2022/03/03 04:40:25;;;;;;;129.30;52.90;;;;;;;;;;6245702;28;20037;-65
2022/03/03 04:43:26;;;;;;;125.30;48.47;;;;;;;;;;6244730;28;20400;-65
2022/03/03 04:46:26;;;;;;;128.93;51.23;;;;;;;;;;6245716;28;20053;-65
2022/03/03 04:49:26;;;;;;;133.50;55.47;;;;;;;;;;6245608;28;20476;-65
2022/03/03 04:52:26;;;;;;;154.60;62.13;;;;;;;;;;6245656;28;20021;-65
2022/03/03 04:55:27;;;;;;;138.77;60.70;;;;;;;;;;6244983;28;20357;-65
2022/03/03 04:58:27;;;;;;;149.73;60.87;;;;;;;;;;6244938;28;20059;-65
2022/03/03 05:01:28;;;;;;;139.10;59.70;;;;;;;;;;6246115;28;20029;-65
2022/03/03 05:04:28;;;;;;;146.40;55.03;;;;;;;;;;6244974;28;20052;-65
2022/03/03 05:07:28;;;;;;;144.80;53.57;;;;;;;;;;6245390;28;20111;-65
2022/03/03 05:10:28;;;;;;;128.10;53.13;;;;;;;;;;6245137;28;20029;-65
2022/03/03 05:13:29;;;;;;;139.73;58.47;;;;;;;;;;6245150;28;20350;-65
2022/03/03 05:16:29;;;;;;;136.63;58.83;;;;;;;;;;6244510;28;20026;-65
2022/03/03 05:19:29;;;;;;;128.07;51.63;;;;;;;;;;6244671;28;20021;-65
2022/03/03 05:22:30;;;;;;;129.53;55.93;;;;;;;;;;6243327;28;20009;-65
2022/03/03 05:25:30;;;;;;;141.27;59.13;;;;;;;;;;6244309;28;20373;-65
2022/03/03 05:28:30;;;;;;;147.07;57.97;;;;;;;;;;6223147;28;20266;-65
2022/03/03 05:31:31;;;;;;;137.73;59.43;;;;;;;;;;6243551;28;20532;-65
2022/03/03 05:34:31;;;;;;;148.40;60.03;;;;;;;;;;6243623;28;20033;-66
2022/03/03 05:37:32;;;;;;;139.07;63.07;;;;;;;;;;6244546;28;20116;-65
2022/03/03 05:40:33;;;;;;;140.20;66.20;;;;;;;;;;6244190;28;20067;-65
2022/03/03 05:43:35;;;;;;;146.43;62.87;;;;;;;;;;6244328;28;20427;-65
2022/03/03 05:46:35;;;;;;;145.00;64.93;;;;;;;;;;6241804;28;20535;-65
2022/03/03 05:49:36;;;;;;;156.73;67.40;;;;;;;;;;6244169;28;20036;-66
2022/03/03 05:52:36;;;;;;;145.87;59.87;;;;;;;;;;6244861;28;20036;-66
2022/03/03 05:55:44;;;;;;;129.60;58.33;;;;;;;;;;6243543;28;20033;-66
2022/03/03 05:58:46;;;;;;;140.50;59.22;;;;;;;;;;6242645;28;20053;-65
2022/03/03 06:01:46;;;;;;;145.20;60.47;;;;;;;;;;6242876;28;20017;-65
2022/03/03 06:04:48;;;;;;;132.63;54.47;;;;;;;;;;6242362;28;20091;-65
2022/03/03 06:07:53;;;;;;;125.72;53.47;;;;;;;;;;6242976;28;20550;-66
2022/03/03 06:10:56;;;;;;;144.02;58.22;;;;;;;;;;6242641;28;20407;-66
2022/03/03 06:14:06;;;;;;;129.50;53.35;;;;;;;;;;6242069;28;20411;-66
2022/03/03 06:17:06;;;;;;;119.38;51.78;;;;;;;;;;6241404;28;20208;-66
2022/03/03 06:20:07;;;;;;;125.03;49.25;;;;;;;;;;6242057;28;20539;-66
2022/03/03 06:23:08;;;;;;;133.80;52.35;;;;;;;;;;6240987;28;20018;-66
2022/03/03 06:26:13;;;;;;;146.82;58.55;;;;;;;;;;6241154;28;20029;-66
2022/03/03 06:29:14;;;;;;;142.60;64.00;;;;;;;;;;6238540;28;20105;-63
2022/03/03 06:32:14;;;;;;;135.98;64.65;;;;;;;;;;6241906;28;20016;-63
2022/03/03 06:35:16;;;;;;;150.30;64.22;;;;;;;;;;6240387;28;20107;-63
2022/03/03 06:38:16;;;;;;;148.20;67.40;;;;;;;;;;6242396;28;20021;-64
2022/03/03 06:41:16;;;;;;;147.30;65.20;;;;;;;;;;6242343;28;20522;-64
2022/03/03 06:44:16;;;;;;;140.57;63.85;;;;;;;;;;6238712;28;20033;-64
2022/03/03 06:47:17;;;;;;;156.35;69.50;;;;;;;;;;6238934;28;20024;-63
2022/03/03 06:50:17;;;;;;;158.63;70.63;;;;;;;;;;6241244;28;20075;-63
2022/03/03 06:53:26;;;;;;;146.50;71.95;;;;;;;;;;6239879;28;20029;-64
2022/03/03 06:56:29;;;;;;;154.40;74.78;;;;;;;;;;6241820;28;20075;-65
2022/03/03 06:59:32;;;;;;;154.05;73.35;;;;;;;;;;6242078;28;20084;-65
2022/03/03 07:02:33;;;;;;;167.55;75.47;;;;;;;;;;6241399;28;20025;-66
2022/03/03 07:05:34;;;;;;;156.57;75.45;;;;;;;;;;6241782;28;20381;-65
2022/03/03 07:08:34;;;;;;;180.00;83.85;;;;;;;;;;6245849;28;20014;-65
2022/03/03 07:11:36;;;;;;;176.00;80.68;;;;;;;;;;6247144;28;20392;-64
2022/03/03 07:14:37;;;;;;;170.93;82.90;;;;;;;;;;6243794;28;20415;-65
2022/03/03 07:17:37;;;;;;;155.15;74.80;;;;;;;;;;6244552;28;20040;-65
2022/03/03 07:20:49;;;;;;;174.18;78.63;;;;;;;;;;6244968;28;20025;-65
2022/03/03 07:23:49;;;;;;;;;;;;;;;;;;6241091;28;20087;-65
2022/03/03 07:26:51;;;;;;;181.85;81.53;;;;;;;;;;6244517;28;19905;-65
2022/03/03 07:29:55;;;;;;;166.85;82.55;;;;;;;;;;6241212;28;20026;-65
2022/03/03 07:32:59;;;;;;;184.35;84.30;;;;;;;;;;6244311;28;20036;-65
2022/03/03 07:36:00;;;;;;;189.25;86.93;;;;;;;;;;6242802;28;20376;-65
2022/03/03 07:39:02;;;;;;;171.52;74.63;;;;;;;;;;6244113;28;20020;-66
2022/03/03 07:42:02;;;;;;;;;;;;;;;;;;6247333;28;20049;-66
2022/03/03 07:45:07;;;;;;;190.80;85.25;;;;;;;;;;6245839;28;19921;-66
2022/03/03 07:48:07;;;;;;;186.40;78.00;;;;;;;;;;6246791;28;20368;-66
2022/03/03 07:51:09;;;;;;;167.38;85.03;;;;;;;;;;6246499;28;20037;-67
2022/03/03 07:54:10;;;;;;;175.00;88.72;;;;;;;;;;6245155;28;20104;-66
2022/03/03 07:57:13;;;;;;;177.55;85.95;;;;;;;;;;6245355;28;20478;-66
2022/03/03 08:00:14;;;;;;;151.57;79.50;;;;;;;;;;6245929;28;20476;-66
2022/03/03 08:29:31;;;;;;;136.57;62.05;;;;;;;;;;6245554;28;20435;-68
2022/03/03 08:32:36;;;;;;;148.68;74.45;;;;;;;;;;6239536;28;20053;-68
2022/03/03 08:35:37;;;;;;;148.93;70.10;;;;;;;;;;6237825;28;20018;-68
2022/03/03 08:38:40;;;;;;;137.05;71.25;;;;;;;;;;6240389;28;20451;-69
2022/03/03 08:41:41;;;;;;;135.50;61.70;;;;;;;;;;6236875;28;20021;-69
2022/03/03 08:44:42;;;;;;;134.52;73.07;;;;;;;;;;6235958;28;20021;-69
2022/03/03 08:47:43;;;;;;;110.78;51.78;;;;;;;;;;6235648;28;20097;-69
2022/03/03 08:50:43;;;;;;;146.18;71.28;;;;;;;;;;6236529;28;20025;-69
2022/03/03 08:53:44;;;;;;;147.88;72.07;;;;;;;;;;6241813;28;20022;-69
2022/03/03 09:00:34;;;;;;;151.30;71.05;;;;;;;;;;6268340;28;20944;-69
2022/03/03 09:03:35;;;;;;;151.63;79.97;;;;;;;;;;6273168;28;20112;-69
2022/03/03 09:06:35;;;;;;;129.85;70.43;;;;;;;;;;6260649;28;20025;-69
2022/03/03 09:09:35;;;;;;;130.85;60.15;;;;;;;;;;6261297;28;20085;-69
2022/03/03 09:12:36;;;;;;;107.78;52.45;;;;;;;;;;6261274;28;20017;-69
2022/03/03 09:15:36;;;;;;;117.65;55.63;;;;;;;;;;6262180;28;20044;-69
2022/03/03 09:18:36;;;;;;;101.35;49.38;;;;;;;;;;6261927;28;20036;-69
2022/03/03 09:21:37;;;;;;;107.78;51.20;;;;;;;;;;6264733;28;20375;-69
2022/03/03 09:26:17;;;;;;;42.45;20.30;;;;;;;;;;6268207;28;20407;-69
2022/03/03 09:29:17;;;;;;;71.30;36.10;;;;;;;;;;6276366;28;20056;-69
2022/03/03 09:32:18;;;;;;;53.05;27.92;;;;;;;;;;6275036;28;20272;-68
2022/03/03 09:35:18;;;;;;;44.55;23.98;;;;;;;;;;6286128;28;20047;-68
2022/03/03 09:38:19;;;;;;;67.75;32.30;;;;;;;;;;6277989;28;20017;-68
2022/03/03 09:41:19;;;;;;;46.38;24.75;;;;;;;;;;6283622;28;20031;-69
2022/03/03 09:44:21;;;;;;;49.85;24.83;;;;;;;;;;6281955;28;20013;-69
2022/03/03 09:47:21;;;;;;;52.55;27.35;;;;;;;;;;6275038;28;20020;-69
2022/03/03 09:50:22;;;;;;;55.55;27.98;;;;;;;;;;6283284;28;20100;-69
2022/03/03 09:53:23;;;;;;;49.47;27.30;;;;;;;;;;6279950;28;20035;-69
2022/03/03 09:56:23;;;;;;;49.78;27.63;;;;;;;;;;6283505;28;20585;-69
2022/03/03 09:59:23;;;;;;;50.50;25.98;;;;;;;;;;6275500;28;20016;-69
2022/03/03 10:02:24;;;;;;;61.92;30.30;;;;;;;;;;6280749;28;20017;-69
2022/03/03 10:05:31;;;;;;;53.10;26.83;;;;;;;;;;6283486;28;20120;-69
2022/03/03 10:08:32;;;;;;;57.60;27.65;;;;;;;;;;6268408;28;20021;-69
2022/03/03 10:11:38;;;;;;;60.10;29.88;;;;;;;;;;6283971;28;20097;-68
2022/03/03 10:14:38;;;;;;;63.10;34.85;;;;;;;;;;6279563;28;20028;-69
2022/03/03 10:17:39;;;;;;;54.60;26.63;;;;;;;;;;6272174;28;20566;-69
2022/03/03 10:20:56;;;;;;;60.95;30.80;;;;;;;;;;6263375;28;20048;-69
2022/03/03 10:23:57;;;;;;;52.20;26.90;;;;;;;;;;6263616;28;20041;-69
2022/03/03 10:27:03;;;;;;;45.23;25.80;;;;;;;;;;6270332;28;20020;-68
2022/03/03 10:30:05;;;;;;;45.42;23.42;;;;;;;;;;6272999;28;20009;-68
2022/03/03 10:33:15;;;;;;;31.50;19.80;;;;;;;;;;6276381;28;20009;-68
2022/03/03 10:36:22;;;;;;;44.50;24.02;;;;;;;;;;6264188;28;20025;-68
2022/03/03 10:39:22;;;;;;;46.90;24.60;;;;;;;;;;6246825;28;20020;-68
2022/03/03 10:42:24;;;;;;;51.10;26.98;;;;;;;;;;6246468;28;20025;-69
2022/03/03 10:45:24;;;;;;;42.53;22.60;;;;;;;;;;6245982;28;20033;-69
2022/03/03 10:48:25;;;;;;;85.72;50.55;;;;;;;;;;6243514;28;20021;-69
2022/03/03 10:51:25;;;;;;;58.13;37.93;;;;;;;;;;6242284;28;20013;-69
2022/03/03 10:54:26;;;;;;;37.70;23.42;;;;;;;;;;6243767;28;20381;-69
2022/03/03 10:57:28;;;;;;;37.85;20.05;;;;;;;;;;6243705;28;20009;-69
2022/03/03 11:00:30;;;;;;;38.42;21.23;;;;;;;;;;6246684;28;20125;-69
2022/03/03 11:03:30;;;;;;;67.80;36.08;;;;;;;;;;6250863;28;20087;-69
2022/03/03 11:06:30;;;;;;;49.95;29.88;;;;;;;;;;6243206;28;20052;-69
2022/03/03 11:09:33;;;;;;;57.42;30.85;;;;;;;;;;6245080;28;20382;-69
2022/03/03 11:12:33;;;;;;;49.60;28.65;;;;;;;;;;6245391;28;20407;-69
2022/03/03 11:15:34;;;;;;;37.95;20.50;;;;;;;;;;6242760;28;20059;-69
2022/03/03 11:18:34;;;;;;;39.67;20.20;;;;;;;;;;6244695;28;20045;-69
2022/03/03 11:21:35;;;;;;;36.55;22.63;;;;;;;;;;6244670;28;20026;-69
2022/03/03 11:24:39;;;;;;;35.47;19.85;;;;;;;;;;6251124;28;20098;-69
2022/03/03 11:27:41;;;;;;;41.90;23.73;;;;;;;;;;6246688;28;20048;-69
2022/03/03 11:30:44;;;;;;;37.33;20.98;;;;;;;;;;6252236;28;20017;-69
2022/03/03 11:33:44;;;;;;;40.53;18.88;;;;;;;;;;6251898;28;20683;-69
2022/03/03 11:36:47;;;;;;;31.10;15.98;;;;;;;;;;6253031;28;20033;-69
2022/03/03 11:39:55;;;;;;;46.83;26.05;;;;;;;;;;6248259;28;20072;-69
2022/03/03 11:42:55;;;;;;;43.25;24.08;;;;;;;;;;6243032;28;20773;-69
2022/03/03 11:45:57;;;;;;;34.60;20.05;;;;;;;;;;6246999;28;20021;-69
2022/03/03 11:49:09;;;;;;;46.85;24.98;;;;;;;;;;6253667;28;20005;-69
2022/03/03 11:52:09;;;;;;;73.47;38.15;;;;;;;;;;6251531;28;20016;-69
2022/03/03 11:55:43;;;;;;;57.63;28.15;;;;;;;;;;6256279;28;20049;-69
2022/03/03 11:58:43;;;;;;;40.80;19.60;;;;;;;;;;6253096;28;20377;-69
2022/03/03 12:02:02;;;;;;;46.05;22.55;;;;;;;;;;6269291;28;20024;-69
2022/03/03 12:05:28;;;;;;;32.08;19.30;;;;;;;;;;6253934;28;20029;-69
2022/03/03 12:08:30;;;;;;;46.50;26.85;;;;;;;;;;6242908;28;20032;-69
2022/03/03 12:11:36;;;;;;;39.97;21.05;;;;;;;;;;6254729;28;20408;-69
2022/03/03 12:14:50;;;;;;;30.58;16.98;;;;;;;;;;6252654;28;20017;-69
2022/03/03 12:17:58;;;;;;;75.00;39.65;;;;;;;;;;6253734;28;20501;-69
2022/03/03 12:21:18;;;;;;;29.55;16.42;;;;;;;;;;6255854;28;20107;-69
2022/03/03 12:24:27;;;;;;;43.13;23.33;;;;;;;;;;6254206;28;20056;-69
2022/03/03 12:27:28;;;;;;;30.60;14.85;;;;;;;;;;6249566;28;20025;-69
2022/03/03 12:30:41;;;;;;;34.72;20.40;;;;;;;;;;6252498;28;20168;-69
2022/03/03 12:33:53;;;;;;;23.98;11.73;;;;;;;;;;6255204;28;20021;-69
2022/03/03 12:36:54;;;;;;;25.77;15.80;;;;;;;;;;6254761;28;20021;-69
2022/03/03 12:39:56;;;;;;;28.15;17.05;;;;;;;;;;6243649;28;20079;-69
2022/03/03 12:42:56;;;;;;;35.42;20.40;;;;;;;;;;6243328;28;20473;-70
2022/03/03 12:45:58;;;;;;;31.33;16.73;;;;;;;;;;6243246;28;20020;-70
2022/03/03 12:49:01;;;;;;;28.40;16.42;;;;;;;;;;6248141;28;20051;-70
2022/03/03 12:52:02;;;;;;;25.60;14.90;;;;;;;;;;6252826;28;20249;-70
2022/03/03 12:55:04;;;;;;;23.03;15.17;;;;;;;;;;6254017;28;20025;-70
2022/03/03 12:58:05;;;;;;;25.98;15.02;;;;;;;;;;6251817;28;20456;-69
2022/03/03 13:01:06;;;;;;;28.10;15.95;;;;;;;;;;6246293;28;20583;-69
2022/03/03 13:04:06;;;;;;;25.77;14.68;;;;;;;;;;6244429;28;20164;-69
2022/03/03 13:07:07;;;;;;;25.52;14.85;;;;;;;;;;6239153;28;20017;-69
2022/03/03 13:10:07;;;;;;;23.80;14.10;;;;;;;;;;6250136;28;20498;-69
2022/03/03 13:13:08;;;;;;;29.88;15.90;;;;;;;;;;6267629;28;20486;-69
2022/03/03 13:16:16;;;;;;;28.73;16.40;;;;;;;;;;6261434;28;20018;-70
2022/03/03 13:19:16;;;;;;;31.05;17.20;;;;;;;;;;6251854;28;20052;-70
2022/03/03 13:22:16;;;;;;;29.85;16.73;;;;;;;;;;6251104;28;20115;-70
2022/03/03 13:25:17;;;;;;;32.00;17.65;;;;;;;;;;6253055;28;20495;-69
2022/03/03 13:28:24;;;;;;;30.37;15.10;;;;;;;;;;6242779;28;20400;-69
2022/03/03 13:31:25;;;;;;;25.75;13.68;;;;;;;;;;6266183;28;20092;-69
2022/03/03 13:34:26;;;;;;;30.63;16.88;;;;;;;;;;6251497;28;20019;-69
2022/03/03 13:37:29;;;;;;;26.30;16.30;;;;;;;;;;6246013;28;20029;-69
2022/03/03 13:40:29;;;;;;;36.88;19.35;;;;;;;;;;6242467;28;20321;-69
2022/03/03 13:43:30;;;;;;;35.42;18.75;;;;;;;;;;6249288;28;20056;-69
2022/03/03 13:46:31;;;;;;;33.17;18.17;;;;;;;;;;6250662;28;20025;-69
2022/03/03 13:49:32;;;;;;;35.55;17.80;;;;;;;;;;6242680;28;20037;-69
2022/03/03 13:52:34;;;;;;;34.17;16.98;;;;;;;;;;6255756;28;20027;-70
2022/03/03 13:55:34;;;;;;;36.33;20.60;;;;;;;;;;6249284;28;20025;-69
2022/03/03 13:58:35;;;;;;;28.30;15.45;;;;;;;;;;6249558;28;20511;-69
2022/03/03 14:01:39;;;;;;;32.67;17.60;;;;;;;;;;6250911;28;20052;-69
2022/03/03 14:04:39;;;;;;;26.48;14.48;;;;;;;;;;6243522;28;20295;-69
2022/03/03 14:07:41;;;;;;;27.83;15.45;;;;;;;;;;6248140;28;20491;-69
2022/03/03 14:10:44;;;;;;;30.67;15.25;;;;;;;;;;6253107;28;20040;-70
2022/03/03 14:13:44;;;;;;;28.60;14.38;;;;;;;;;;6259033;28;20036;-69
2022/03/03 14:16:45;;;;;;;28.20;15.38;;;;;;;;;;6257193;28;20029;-69
2022/03/03 14:19:46;;;;;;;24.77;14.45;;;;;;;;;;6253492;28;20037;-69
2022/03/03 14:22:53;;;;;;;27.08;15.43;;;;;;;;;;6258526;28;20033;-69
2022/03/03 14:25:54;;;;;;;25.27;15.82;;;;;;;;;;6262062;28;20049;-69
2022/03/03 14:28:55;;;;;;;25.98;14.85;;;;;;;;;;6251472;28;20029;-69
2022/03/03 14:31:55;;;;;;;29.30;17.17;;;;;;;;;;6268306;28;20029;-69
2022/03/03 14:34:55;;;;;;;33.15;18.05;;;;;;;;;;6258684;28;20029;-69
2022/03/03 14:37:56;;;;;;;27.98;15.32;;;;;;;;;;6248976;28;20029;-69
2022/03/03 14:40:57;;;;;;;27.40;14.77;;;;;;;;;;6246820;28;20033;-69
2022/03/03 14:43:58;;;;;;;22.00;12.13;;;;;;;;;;6260865;28;20072;-70
2022/03/03 14:46:58;;;;;;;36.25;19.58;;;;;;;;;;6260243;28;20415;-69
2022/03/03 14:49:58;;;;;;;25.65;13.80;;;;;;;;;;6246121;28;20029;-69
2022/03/03 14:52:59;;;;;;;27.13;14.75;;;;;;;;;;6261469;28;20017;-69
2022/03/03 14:55:59;;;;;;;29.20;17.83;;;;;;;;;;6269271;28;20018;-70
2022/03/03 14:59:00;;;;;;;23.08;13.35;;;;;;;;;;6261031;28;20037;-69
2022/03/03 15:02:01;;;;;;;26.13;14.43;;;;;;;;;;6252160;28;20040;-69
2022/03/03 15:05:02;;;;;;;23.83;12.82;;;;;;;;;;6245887;28;20021;-69
2022/03/03 15:08:03;;;;;;;26.87;15.50;;;;;;;;;;6245855;28;20022;-69
2022/03/03 15:11:03;;;;;;;27.63;14.95;;;;;;;;;;6252985;28;20018;-69
2022/03/03 15:14:03;;;;;;;29.63;14.95;;;;;;;;;;6269351;28;20032;-69
2022/03/03 15:17:04;;;;;;;27.65;14.50;;;;;;;;;;6258660;28;20124;-69
2022/03/03 15:20:05;;;;;;;31.40;16.95;;;;;;;;;;6257260;28;20025;-69
2022/03/03 15:23:05;;;;;;;32.45;15.88;;;;;;;;;;6257143;28;20021;-69
2022/03/03 15:26:05;;;;;;;34.80;16.38;;;;;;;;;;6255858;28;20044;-69
2022/03/03 15:29:09;;;;;;;35.42;18.35;;;;;;;;;;6258037;28;20097;-69
2022/03/03 15:32:09;;;;;;;40.58;21.00;;;;;;;;;;6255365;28;20041;-69
2022/03/03 15:38:28;;;;;;;92.13;45.08;;;;;;;;;;6251532;28;20026;-69
2022/03/03 15:41:28;;;;;;;83.70;44.28;;;;;;;;;;6260043;28;20087;-69
2022/03/03 15:44:30;;;;;;;84.70;40.92;;;;;;;;;;6244885;28;20017;-69
2022/03/03 15:47:30;;;;;;;85.40;46.33;;;;;;;;;;6247230;28;20483;-69
2022/03/03 15:50:32;;;;;;;68.50;35.63;;;;;;;;;;6257447;28;20025;-69
2022/03/03 15:53:33;;;;;;;92.57;45.53;;;;;;;;;;6254365;28;20025;-69
2022/03/03 15:56:34;;;;;;;79.30;44.80;;;;;;;;;;6250105;28;20094;-69
2022/03/03 15:59:34;;;;;;;89.38;46.35;;;;;;;;;;6248417;28;20392;-69
2022/03/03 16:02:35;;;;;;;78.57;43.13;;;;;;;;;;6257184;28;20048;-69
2022/03/03 16:05:35;;;;;;;87.97;45.08;;;;;;;;;;6256848;28;20020;-69
2022/03/03 16:08:36;;;;;;;74.38;39.83;;;;;;;;;;6253709;28;20045;-69
2022/03/03 16:11:36;;;;;;;49.20;27.75;;;;;;;;;;6254801;28;20385;-69
2022/03/03 16:14:36;;;;;;;51.38;25.95;;;;;;;;;;6242500;28;20037;-69
2022/03/03 16:17:37;;;;;;;51.58;28.23;;;;;;;;;;6242180;28;20021;-69
2022/03/03 16:20:37;;;;;;;60.63;31.08;;;;;;;;;;6249027;28;20365;-69
2022/03/03 16:23:37;;;;;;;73.22;33.58;;;;;;;;;;6250945;28;20029;-69
2022/03/03 16:26:38;;;;;;;62.47;32.50;;;;;;;;;;6253584;28;20027;-69
2022/03/03 16:29:39;;;;;;;103.78;53.17;;;;;;;;;;6260251;28;20151;-69
2022/03/03 16:32:42;;;;;;;64.43;32.38;;;;;;;;;;6244330;28;20018;-69
2022/03/03 16:35:43;;;;;;;137.10;75.43;;;;;;;;;;6246735;28;20029;-69
2022/03/03 16:38:43;;;;;;;205.25;104.30;;;;;;;;;;6246217;28;20036;-69
2022/03/03 16:41:43;;;;;;;150.10;80.47;;;;;;;;;;6253521;28;20099;-69
2022/03/03 16:44:45;;;;;;;250.77;127.45;;;;;;;;;;6260725;28;20063;-69
2022/03/03 16:47:47;;;;;;;154.75;82.85;;;;;;;;;;6253896;28;20021;-69
2022/03/03 16:50:48;;;;;;;108.30;49.30;;;;;;;;;;6241682;28;20026;-69
2022/03/03 16:53:48;;;;;;;102.10;47.75;;;;;;;;;;6242790;28;20396;-69
2022/03/03 16:56:49;;;;;;;107.25;49.35;;;;;;;;;;6242446;28;20016;-69
2022/03/03 16:59:50;;;;;;;199.10;90.35;;;;;;;;;;6251726;28;20036;-69
2022/03/03 17:02:51;;;;;;;224.00;103.65;;;;;;;;;;6248833;28;20047;-69
2022/03/03 17:05:52;;;;;;;253.60;110.68;;;;;;;;;;6242815;28;20465;-69
2022/03/03 17:08:53;;;;;;;254.88;118.22;;;;;;;;;;6252001;28;20024;-69
2022/03/03 17:11:53;;;;;;;237.52;103.10;;;;;;;;;;6251575;28;20020;-69
2022/03/03 17:14:53;;;;;;;218.07;97.13;;;;;;;;;;6252565;28;20013;-69
2022/03/03 17:17:55;;;;;;;207.73;86.45;;;;;;;;;;6252055;28;20673;-69
2022/03/03 17:20:55;;;;;;;216.40;92.82;;;;;;;;;;6254699;28;20029;-69
2022/03/03 17:23:55;;;;;;;184.55;78.05;;;;;;;;;;6253107;28;20506;-69
2022/03/03 17:26:58;;;;;;;172.30;76.05;;;;;;;;;;6252024;28;20573;-69
2022/03/03 17:29:58;;;;;;;186.48;85.80;;;;;;;;;;6255535;28;20022;-69
2022/03/03 17:32:58;;;;;;;97.75;47.40;;;;;;;;;;6253733;28;20049;-69
2022/03/03 17:35:59;;;;;;;86.90;40.97;;;;;;;;;;6252978;28;20017;-69
2022/03/03 17:38:59;;;;;;;98.10;43.63;;;;;;;;;;6262998;28;20052;-69
2022/03/03 17:42:01;;;;;;;122.70;56.63;;;;;;;;;;6258948;28;20056;-69
2022/03/03 17:45:01;;;;;;;146.07;65.07;;;;;;;;;;6244189;28;20507;-69
2022/03/03 17:48:01;;;;;;;145.85;66.80;;;;;;;;;;6252052;28;20037;-69
2022/03/03 17:51:04;;;;;;;112.78;50.33;;;;;;;;;;6260685;28;20036;-69
2022/03/03 17:54:05;;;;;;;122.60;57.75;;;;;;;;;;6271981;28;20032;-69
2022/03/03 17:57:05;;;;;;;124.93;56.42;;;;;;;;;;6258804;28;20108;-69
2022/03/03 18:00:06;;;;;;;144.38;66.35;;;;;;;;;;6266133;28;20398;-69
2022/03/03 18:03:06;;;;;;;123.25;54.30;;;;;;;;;;6260686;28;20032;-69